Time;durP1;ratioP1;P1;durP2;ratioP2;P2;SDS_P1;SDS_P2;PMS_P1;PMS_P2;Temp;Humidity;BMP_temperature;BMP_pressure;BME280_temperature;BME280_humidity;BME280_pressure;Samples;Min_cycle;Max_cycle;Signal;HPM_P1;HPM_P2
2021/12/29 00:04:18;;;;;;;15.40;11.97;;;;;;;11.24;66.49;98793.91;10082372;29;20206;-83
2021/12/29 00:09:20;;;;;;;11.80;10.57;;;;;;;10.92;68.12;98798.72;10080792;29;20890;-83
2021/12/29 00:14:23;;;;;;;12.57;10.90;;;;;;;10.63;69.54;98797.13;10087101;29;20249;-81
2021/12/29 00:19:25;;;;;;;11.10;9.90;;;;;;;10.94;67.84;98803.97;10045802;29;20635;-83
2021/12/29 00:24:28;;;;;;;12.23;10.60;;;;;;;10.84;67.60;98808.16;10075229;29;20234;-81
2021/12/29 00:29:32;;;;;;;14.77;11.97;;;;;;;10.39;68.58;98820.53;10076222;29;20206;-83
2021/12/29 00:34:53;;;;;;;13.73;12.20;;;;;;;10.98;66.80;98831.00;10073701;29;20619;-83
2021/12/29 00:40:34;;;;;;;13.17;11.87;;;;;;;10.99;66.53;98835.44;9920860;29;20260;-83
2021/12/29 00:45:55;;;;;;;14.93;13.30;;;;;;;10.94;67.31;98852.56;10053691;29;20253;-82
2021/12/29 00:50:57;;;;;;;15.53;13.30;;;;;;;10.67;67.85;98861.84;10061099;29;20233;-83
2021/12/29 00:56:00;;;;;;;16.47;14.77;;;;;;;10.39;68.53;98875.84;10058519;29;20711;-82
2021/12/29 01:01:03;;;;;;;16.40;14.70;;;;;;;10.69;67.94;98893.19;10060627;29;20265;-83
2021/12/29 01:06:06;;;;;;;20.03;15.77;;;;;;;10.16;69.62;98914.88;10068072;29;20261;-83
2021/12/29 01:11:08;;;;;;;17.60;15.87;;;;;;;10.68;68.41;98928.91;10058216;29;20308;-82
2021/12/29 01:21:33;;;;;;;20.70;16.67;;;;;;;10.65;68.28;98956.88;10076817;29;20305;-84
2021/12/29 01:26:36;;;;;;;19.07;16.73;;;;;;;10.38;68.91;98953.63;10071923;29;20238;-82
2021/12/29 01:31:39;;;;;;;16.63;14.73;;;;;;;9.82;72.15;98977.09;10073947;29;20254;-83
2021/12/29 01:36:41;;;;;;;19.50;14.30;;;;;;;10.70;68.72;98984.72;10072424;29;20241;-83
2021/12/29 01:41:45;;;;;;;16.73;14.77;;;;;;;10.84;67.66;98999.19;10068728;29;20250;-84
2021/12/29 01:46:47;;;;;;;16.40;14.57;;;;;;;10.97;67.79;99014.03;10073104;29;20293;-83
2021/12/29 01:52:00;;;;;;;17.30;14.60;;;;;;;10.59;67.90;99028.50;10073976;29;20854;-83
2021/12/29 01:57:06;;;;;;;17.87;15.33;;;;;;;10.59;67.63;99045.34;10073419;29;20313;-82
2021/12/29 02:02:08;;;;;;;15.50;12.63;;;;;;;10.59;68.13;99042.53;10076700;29;20265;-83
2021/12/29 02:07:11;;;;;;;13.13;11.63;;;;;;;10.02;70.26;99063.13;10062267;29;20698;-82
2021/12/29 02:12:16;;;;;;;12.23;10.80;;;;;;;10.65;68.39;99063.59;10055517;29;20246;-83
2021/12/29 02:17:18;;;;;;;10.50;9.43;;;;;;;10.30;69.92;99075.31;10096543;29;20588;-82
2021/12/29 02:23:11;;;;;;;11.57;10.37;;;;;;;10.67;68.12;99078.13;10065691;29;20655;-83
2021/12/29 02:27:54;;;;;;;11.83;10.50;;;;;;;10.62;68.45;99081.97;10076621;29;20566;-83
2021/12/29 02:33:02;;;;;;;16.17;11.77;;;;;;;10.55;68.12;99086.53;10083526;29;20282;-83
2021/12/29 02:38:09;;;;;;;16.07;12.73;;;;;;;10.46;68.85;99088.66;10078573;29;20298;-83
2021/12/29 02:43:18;;;;;;;16.30;13.57;;;;;;;9.92;70.50;99103.69;10078207;29;20733;-83
2021/12/29 02:48:23;;;;;;;17.53;13.87;;;;;;;10.75;68.04;99096.81;10063408;29;20249;-82
2021/12/29 02:53:26;;;;;;;17.87;14.03;;;;;;;10.76;68.02;99123.75;10050996;29;20294;-83
2021/12/29 02:58:29;;;;;;;15.77;14.07;;;;;;;10.15;69.62;99125.72;10036275;29;20298;-82
2021/12/29 03:03:33;;;;;;;15.17;13.57;;;;;;;10.57;68.46;99148.78;10058466;29;20279;-83
2021/12/29 03:08:35;;;;;;;14.57;12.53;;;;;;;10.99;66.80;99150.19;10053691;29;20303;-82
2021/12/29 03:13:39;;;;;;;11.90;10.63;;;;;;;10.99;66.42;99152.19;10055761;29;20259;-81
2021/12/29 03:18:42;;;;;;;13.67;9.60;;;;;;;10.74;66.97;99162.63;10072896;29;20314;-82
2021/12/29 03:23:44;;;;;;;10.03;8.70;;;;;;;10.69;66.85;99172.09;10070443;29;20253;-83
2021/12/29 03:28:47;;;;;;;9.13;7.30;;;;;;;10.17;69.37;99165.47;10063286;29;20237;-83
2021/12/29 03:33:50;;;;;;;9.37;7.23;;;;;;;10.74;67.16;99162.63;10073265;29;20214;-83
2021/12/29 03:38:53;;;;;;;9.13;7.63;;;;;;;10.49;67.14;99172.19;10070640;29;20714;-84
2021/12/29 03:43:55;;;;;;;11.73;8.57;;;;;;;10.66;67.41;99183.22;10062452;29;20246;-81
2021/12/29 03:48:57;;;;;;;12.33;8.97;;;;;;;10.74;67.04;99190.72;10082291;29;20227;-83
2021/12/29 03:54:02;;;;;;;12.20;9.67;;;;;;;10.64;66.92;99197.59;10082444;29;20258;-81
2021/12/29 03:59:04;;;;;;;12.13;9.00;;;;;;;10.87;66.32;99197.97;10037598;29;20210;-82
2021/12/29 04:04:06;;;;;;;12.67;9.93;;;;;;;10.74;66.24;99207.59;10038715;29;20358;-81
2021/12/29 04:09:09;;;;;;;13.20;10.20;;;;;;;11.00;65.74;99215.66;10063818;29;20841;-81
2021/12/29 04:14:11;;;;;;;10.83;9.70;;;;;;;10.77;65.36;99226.53;10046151;29;20568;-81
2021/12/29 04:19:15;;;;;;;11.93;10.63;;;;;;;11.53;63.81;99239.00;10049374;29;20242;-82
2021/12/29 04:24:17;;;;;;;11.90;9.90;;;;;;;11.04;65.23;99245.50;10067939;29;20258;-82
2021/12/29 04:29:19;;;;;;;15.00;11.30;;;;;;;10.64;66.40;99269.81;10046339;29;20286;-83
2021/12/29 04:34:22;;;;;;;13.87;10.77;;;;;;;10.67;66.91;99277.56;10056968;29;20244;-81
2021/12/29 04:39:25;;;;;;;11.33;10.13;;;;;;;11.22;65.17;99279.00;10058475;29;20240;-82
2021/12/29 04:44:27;;;;;;;10.97;9.83;;;;;;;11.01;65.24;99296.78;10078008;29;20313;-81
2021/12/29 04:49:39;;;;;;;11.80;10.60;;;;;;;11.14;64.70;99300.41;10078664;29;20206;-81
2021/12/29 04:54:41;;;;;;;14.33;11.67;;;;;;;10.54;67.56;99315.19;10081131;29;20206;-81
2021/12/29 04:59:44;;;;;;;11.93;10.33;;;;;;;10.97;65.91;99318.34;10078358;29;20218;-81
2021/12/29 05:04:55;;;;;;;14.17;12.07;;;;;;;11.06;65.16;99321.88;10075907;29;20246;-82
2021/12/29 05:09:59;;;;;;;11.87;10.60;;;;;;;10.90;65.39;99329.31;10077060;29;20233;-82
2021/12/29 05:15:01;;;;;;;15.17;11.43;;;;;;;11.14;64.84;99329.34;10076904;29;20261;-82
2021/12/29 05:20:04;;;;;;;14.53;11.73;;;;;;;10.47;68.18;99337.41;10076274;29;20241;-82
2021/12/29 05:25:06;;;;;;;17.40;12.93;;;;;;;10.95;65.69;99340.34;10076591;29;20269;-81
2021/12/29 05:30:09;;;;;;;14.60;10.90;;;;;;;10.46;67.46;99361.03;10071207;29;20285;-82
2021/12/29 05:35:11;;;;;;;9.87;8.63;;;;;;;10.42;66.39;99384.19;10076454;29;20206;-82
2021/12/29 05:40:15;;;;;;;10.47;7.67;;;;;;;10.86;65.75;99398.66;10076213;29;20210;-81
2021/12/29 05:45:17;;;;;;;8.67;6.10;;;;;;;10.59;65.21;99396.41;10076792;29;20247;-81
2021/12/29 05:50:22;;;;;;;9.23;6.60;;;;;;;10.85;64.72;99399.81;10054484;29;20258;-81
2021/12/29 05:55:26;;;;;;;7.77;5.60;;;;;;;10.63;66.26;99408.63;10049086;29;20247;-81
2021/12/29 06:00:28;;;;;;;9.27;5.80;;;;;;;11.15;62.65;99409.72;10038138;29;20287;-82
2021/12/29 06:05:31;;;;;;;11.77;5.60;;;;;;;11.06;63.14;99411.81;10067070;29;20282;-82
2021/12/29 06:10:33;;;;;;;7.47;5.87;;;;;;;11.02;63.03;99404.41;10068400;29;20373;-81
2021/12/29 06:15:36;;;;;;;9.50;6.53;;;;;;;11.28;62.17;99404.09;10035086;29;20302;-81
2021/12/29 06:20:42;;;;;;;10.23;7.67;;;;;;;11.70;60.67;99414.00;10047214;29;20573;-81
2021/12/29 06:25:44;;;;;;;11.10;8.67;;;;;;;11.92;59.88;99421.13;10050337;29;20238;-81
2021/12/29 06:30:46;;;;;;;14.63;9.67;;;;;;;11.60;60.63;99422.06;10059741;29;20259;-81
2021/12/29 06:35:49;;;;;;;15.03;11.00;;;;;;;11.63;61.04;99430.66;10080616;29;20270;-81
2021/12/29 06:40:56;;;;;;;15.23;11.40;;;;;;;11.55;60.96;99447.59;10050009;29;20257;-83
2021/12/29 06:45:58;;;;;;;16.57;12.47;;;;;;;11.28;62.24;99443.47;10060123;29;20270;-86
2021/12/29 06:51:00;;;;;;;19.77;11.90;;;;;;;11.06;62.55;99451.16;10096616;29;20229;-83
2021/12/29 06:56:05;;;;;;;15.47;11.70;;;;;;;11.43;61.83;99460.50;10075382;29;20266;-83
2021/12/29 07:01:08;;;;;;;16.60;11.27;;;;;;;11.55;60.85;99465.31;10081888;29;20284;-83
2021/12/29 07:06:11;;;;;;;11.93;10.03;;;;;;;11.02;62.81;99478.31;10062367;29;20289;-82
2021/12/29 07:11:13;;;;;;;14.73;10.83;;;;;;;11.78;60.17;99488.25;10049999;29;20245;-85
2021/12/29 07:16:15;;;;;;;15.30;10.80;;;;;;;11.08;61.65;99495.78;10079218;29;20237;-82
2021/12/29 07:21:17;;;;;;;12.87;9.27;;;;;;;10.95;63.08;99517.41;10064511;29;20249;-83
2021/12/29 07:26:24;;;;;;;11.20;8.87;;;;;;;11.35;62.39;99509.25;10077092;29;20237;-82
2021/12/29 07:31:27;;;;;;;11.03;8.53;;;;;;;11.80;60.36;99514.84;10060204;29;20290;-85
2021/12/29 07:36:50;;;;;;;8.80;7.70;;;;;;;10.85;63.79;99523.47;10074246;29;20623;-86
2021/12/29 07:41:53;;;;;;;9.33;7.80;;;;;;;10.65;64.16;99518.66;10075176;29;20289;-82
2021/12/29 07:47:04;;;;;;;10.50;8.23;;;;;;;11.49;61.89;99526.63;10062280;29;20328;-83
2021/12/29 07:52:08;;;;;;;10.87;8.10;;;;;;;10.96;64.13;99538.72;10081067;29;20293;-85
2021/12/29 07:57:11;;;;;;;10.93;9.47;;;;;;;10.96;64.14;99552.78;10060706;29;20322;-86
2021/12/29 08:02:17;;;;;;;14.80;10.03;;;;;;;11.51;62.49;99534.72;10078425;29;20341;-83
2021/12/29 08:07:19;;;;;;;15.40;11.87;;;;;;;11.37;62.44;99546.28;10081565;29;20275;-82
2021/12/29 08:12:21;;;;;;;16.30;12.30;;;;;;;11.91;60.41;99546.19;10057468;29;20241;-84
2021/12/29 08:17:24;;;;;;;14.87;10.90;;;;;;;11.72;61.17;99551.53;10090603;29;20248;-82
2021/12/29 08:22:26;;;;;;;15.60;11.93;;;;;;;11.57;62.05;99564.25;10067104;29;20268;-83
2021/12/29 08:27:28;;;;;;;15.60;11.80;;;;;;;11.30;63.12;99562.06;10068971;29;20237;-82
2021/12/29 08:32:31;;;;;;;18.30;12.63;;;;;;;11.22;63.35;99572.22;10073392;29;20624;-82
2021/12/29 08:37:34;;;;;;;17.57;12.80;;;;;;;11.48;63.04;99580.41;10068373;29;20236;-82
2021/12/29 08:42:37;;;;;;;19.03;13.87;;;;;;;11.66;62.06;99573.44;10072515;29;20260;-81
2021/12/29 08:47:40;;;;;;;18.33;13.90;;;;;;;10.98;65.04;99572.94;10095187;29;20298;-81
2021/12/29 08:52:42;;;;;;;19.60;14.37;;;;;;;11.49;62.50;99573.63;10062906;29;20296;-84
2021/12/29 08:57:44;;;;;;;20.60;15.57;;;;;;;11.80;61.22;99576.75;10085495;29;20586;-82
2021/12/29 09:02:48;;;;;;;24.30;16.63;;;;;;;11.31;62.55;99586.19;10074690;29;20261;-82
2021/12/29 09:07:50;;;;;;;20.07;15.70;;;;;;;10.73;64.32;99586.03;10075430;29;20678;-82
2021/12/29 09:12:52;;;;;;;22.80;16.73;;;;;;;11.85;61.69;99587.81;10060867;29;20313;-81
2021/12/29 09:17:55;;;;;;;26.67;18.83;;;;;;;11.24;63.15;99594.38;10075929;29;20541;-82
2021/12/29 09:23:00;;;;;;;27.70;17.83;;;;;;;11.55;61.99;99602.34;10073912;29;20257;-81
2021/12/29 09:28:03;;;;;;;25.63;17.40;;;;;;;11.33;63.19;99610.00;10088096;29;20237;-82
2021/12/29 09:33:07;;;;;;;28.03;18.73;;;;;;;10.89;63.39;99619.94;10085385;29;20650;-81
2021/12/29 09:38:09;;;;;;;27.30;17.77;;;;;;;11.27;62.36;99630.22;10078365;29;20237;-80
2021/12/29 09:43:12;;;;;;;25.37;19.90;;;;;;;11.77;60.46;99633.75;10066749;29;20265;-83
2021/12/29 09:48:15;;;;;;;24.20;18.83;;;;;;;11.54;61.51;99645.69;10075876;29;20254;-82
2021/12/29 09:53:20;;;;;;;27.67;19.23;;;;;;;11.85;60.66;99634.81;10048388;29;20409;-83
2021/12/29 09:58:22;;;;;;;29.00;19.83;;;;;;;11.03;63.51;99637.38;10054743;29;20313;-80
2021/12/29 10:03:26;;;;;;;29.77;21.23;;;;;;;11.39;62.19;99636.75;10066491;29;21586;-81
2021/12/29 10:08:32;;;;;;;26.27;18.63;;;;;;;11.56;62.35;99632.94;10043771;29;20273;-81
2021/12/29 10:13:39;;;;;;;25.97;19.30;;;;;;;11.88;60.94;99616.44;10046250;29;20628;-81
2021/12/29 10:18:43;;;;;;;23.97;19.67;;;;;;;11.60;61.11;99625.47;10035917;29;20634;-83
2021/12/29 10:23:48;;;;;;;24.63;19.37;;;;;;;11.07;62.62;99632.72;10041893;29;20323;-83
2021/12/29 10:29:13;;;;;;;25.83;19.33;;;;;;;11.30;62.44;99612.66;10041974;29;20239;-83
2021/12/29 10:34:26;;;;;;;24.03;18.77;;;;;;;10.81;64.84;99609.59;10061558;29;20723;-82
2021/12/29 10:39:34;;;;;;;25.87;19.43;;;;;;;11.33;62.28;99623.22;10057467;29;20275;-82
2021/12/29 10:44:42;;;;;;;25.83;18.10;;;;;;;11.24;62.70;99630.94;10061658;29;20764;-83
2021/12/29 10:49:58;;;;;;;20.43;16.70;;;;;;;11.22;62.28;99622.00;10039436;29;20242;-82
2021/12/29 10:55:06;;;;;;;22.13;16.73;;;;;;;11.34;62.12;99613.63;10059189;29;20206;-82
2021/12/29 11:00:15;;;;;;;22.50;15.17;;;;;;;11.90;60.65;99608.47;10055670;29;20234;-82
2021/12/29 11:05:18;;;;;;;18.87;15.13;;;;;;;11.73;60.80;99613.09;10071643;29;20257;-82
2021/12/29 11:10:21;;;;;;;18.10;14.77;;;;;;;11.52;61.13;99620.75;10049451;29;20567;-82
2021/12/29 11:15:26;;;;;;;16.63;13.13;;;;;;;11.68;61.29;99604.88;10043475;29;20238;-82
2021/12/29 11:20:31;;;;;;;15.23;12.60;;;;;;;11.79;59.58;99614.50;10035764;29;20290;-82
2021/12/29 11:25:34;;;;;;;15.17;11.27;;;;;;;11.80;59.76;99607.72;10053793;29;20302;-82
2021/12/29 11:30:43;;;;;;;12.83;10.03;;;;;;;11.92;58.86;99608.91;10037148;29;20296;-82
2021/12/29 11:35:50;;;;;;;11.77;10.10;;;;;;;11.96;58.41;99607.03;10037047;29;20290;-83
2021/12/29 11:40:57;;;;;;;10.73;8.43;;;;;;;12.48;57.12;99612.84;10060966;29;20552;-82
2021/12/29 11:46:00;;;;;;;13.53;8.67;;;;;;;11.32;60.30;99616.78;10081615;29;20261;-82
2021/12/29 11:51:03;;;;;;;10.03;7.27;;;;;;;11.65;58.13;99622.47;10077405;29;20237;-82
2021/12/29 11:56:08;;;;;;;10.13;8.07;;;;;;;11.88;58.26;99631.31;10076760;29;20289;-82
2021/12/29 12:01:12;;;;;;;7.87;7.00;;;;;;;11.70;57.72;99644.75;10066585;29;20575;-81
2021/12/29 12:06:35;;;;;;;9.80;6.77;;;;;;;12.24;56.36;99616.47;10060930;29;20328;-81
2021/12/29 12:12:03;;;;;;;8.60;6.90;;;;;;;12.59;55.27;99635.75;10093027;29;20535;-81
2021/12/29 12:17:20;;;;;;;10.50;7.90;;;;;;;11.50;57.85;99625.91;10075602;29;20297;-81
2021/12/29 12:22:22;;;;;;;8.60;7.07;;;;;;;11.92;56.54;99608.91;10064158;29;20344;-80
2021/12/29 12:27:36;;;;;;;8.47;7.67;;;;;;;12.08;55.96;99615.50;10057092;29;20281;-81
2021/12/29 12:32:42;;;;;;;12.97;7.57;;;;;;;12.13;56.00;99618.09;10063906;29;20233;-81
2021/12/29 12:37:46;;;;;;;9.03;7.37;;;;;;;12.00;56.33;99616.44;10088336;29;20230;-81
2021/12/29 12:43:11;;;;;;;7.33;6.37;;;;;;;12.16;56.03;99611.78;10069243;29;20265;-82
2021/12/29 12:48:19;;;;;;;8.87;7.00;;;;;;;12.31;55.51;99616.69;10090961;29;20678;-81
2021/12/29 12:53:38;;;;;;;8.33;5.87;;;;;;;11.55;57.76;99620.03;10083159;29;20209;-83
2021/12/29 12:58:43;;;;;;;6.83;6.13;;;;;;;11.79;56.86;99625.75;10091865;29;20233;-82
2021/12/29 13:03:46;;;;;;;9.63;6.23;;;;;;;12.05;56.30;99621.84;10082914;29;20714;-84
2021/12/29 13:08:49;;;;;;;7.40;6.43;;;;;;;11.84;56.88;99621.91;10063923;29;20265;-82
2021/12/29 13:13:54;;;;;;;13.27;7.07;;;;;;;11.94;56.10;99615.84;10075606;29;20229;-82
2021/12/29 13:18:58;;;;;;;8.10;6.20;;;;;;;11.57;57.51;99608.44;10075435;29;20937;-82
2021/12/29 13:24:13;;;;;;;8.03;5.50;;;;;;;11.23;58.54;99598.34;10073352;29;20253;-83
2021/12/29 13:29:18;;;;;;;6.10;4.83;;;;;;;11.35;58.45;99587.16;10094655;29;20241;-80
2021/12/29 13:34:28;;;;;;;11.63;5.93;;;;;;;11.38;58.68;99586.47;10088775;29;20531;-81
2021/12/29 13:39:30;;;;;;;7.17;6.03;;;;;;;11.35;58.58;99573.09;10059258;29;20241;-82
2021/12/29 13:44:36;;;;;;;8.17;6.07;;;;;;;11.39;58.35;99585.31;10066169;29;20252;-80
2021/12/29 13:49:40;;;;;;;9.83;6.47;;;;;;;11.11;59.16;99554.97;10086321;29;20252;-83
2021/12/29 13:54:46;;;;;;;9.10;6.53;;;;;;;11.21;59.14;99547.25;10083324;29;20221;-84
2021/12/29 13:59:49;;;;;;;7.30;6.13;;;;;;;11.16;59.38;99556.72;10066365;29;20298;-82
2021/12/29 14:04:52;;;;;;;7.83;6.10;;;;;;;11.54;57.79;99556.50;10089123;29;20325;-81
2021/12/29 14:09:58;;;;;;;12.60;6.90;;;;;;;11.83;56.82;99581.69;10075596;29;20544;-82
2021/12/29 14:15:06;;;;;;;11.00;6.67;;;;;;;11.31;58.46;99575.78;10104167;29;20230;-81
2021/12/29 14:20:12;;;;;;;9.97;5.73;;;;;;;11.19;59.19;99577.72;10091722;29;20317;-82
2021/12/29 14:25:15;;;;;;;7.43;6.30;;;;;;;11.59;58.16;99570.34;10092525;29;20246;-82
2021/12/29 14:30:20;;;;;;;8.60;5.13;;;;;;;11.40;58.65;99544.72;10082827;29;20234;-82
2021/12/29 14:35:24;;;;;;;7.30;4.87;;;;;;;11.00;60.02;99545.31;10082059;29;20835;-82
2021/12/29 14:40:30;;;;;;;6.77;4.87;;;;;;;11.33;59.14;99527.63;10067526;29;20248;-81
2021/12/29 14:45:32;;;;;;;5.57;4.07;;;;;;;11.30;59.24;99543.19;10067804;29;20317;-81
2021/12/29 14:50:38;;;;;;;8.13;4.23;;;;;;;11.07;59.92;99545.56;10060403;29;20236;-82
2021/12/29 14:55:40;;;;;;;6.33;4.07;;;;;;;11.23;59.33;99539.31;10074866;29;20294;-81
2021/12/29 15:00:44;;;;;;;5.00;3.47;;;;;;;11.03;59.69;99533.38;10098289;29;20234;-80
2021/12/29 15:05:50;;;;;;;5.70;3.53;;;;;;;11.06;59.80;99541.09;10062070;29;20677;-80
2021/12/29 15:10:56;;;;;;;5.37;3.33;;;;;;;11.61;57.90;99525.00;10068828;29;20293;-81
2021/12/29 15:16:03;;;;;;;7.73;3.73;;;;;;;11.36;59.18;99524.13;10105552;29;20241;-82
2021/12/29 15:21:07;;;;;;;5.03;2.87;;;;;;;11.15;60.42;99516.53;10100555;29;20233;-82
2021/12/29 15:26:14;;;;;;;3.43;2.83;;;;;;;10.42;62.40;99516.16;10069369;29;20576;-80
2021/12/29 15:31:17;;;;;;;5.43;2.53;;;;;;;10.66;62.73;99503.44;10073470;29;20245;-79
2021/12/29 15:36:19;;;;;;;6.93;3.07;;;;;;;10.14;64.69;99497.34;10057535;29;20241;-82
2021/12/29 15:41:23;;;;;;;4.37;2.70;;;;;;;10.81;62.79;99500.00;10084694;29;20237;-81
2021/12/29 15:46:25;;;;;;;4.67;2.73;;;;;;;10.69;63.64;99491.53;10072573;29;20257;-82
2021/12/29 15:51:28;;;;;;;4.73;3.00;;;;;;;10.53;64.33;99498.88;10104664;29;20240;-83
2021/12/29 15:56:30;;;;;;;4.73;2.63;;;;;;;10.37;65.67;99496.69;10057185;29;20292;-82
2021/12/29 16:01:32;;;;;;;4.57;2.70;;;;;;;10.52;65.24;99478.41;10100054;29;20564;-82
2021/12/29 16:06:35;;;;;;;5.63;2.50;;;;;;;10.09;67.20;99467.50;10086900;29;20260;-81
2021/12/29 16:11:37;;;;;;;2.37;1.90;;;;;;;10.15;67.36;99449.28;10061954;29;20238;-81
2021/12/29 16:16:39;;;;;;;3.17;1.77;;;;;;;10.51;66.31;99445.03;10066186;29;20225;-84
2021/12/29 16:21:42;;;;;;;4.57;2.13;;;;;;;10.61;65.56;99447.47;10061313;29;20286;-83
2021/12/29 16:26:44;;;;;;;4.43;1.60;;;;;;;10.38;66.41;99467.44;10057044;29;20273;-85
2021/12/29 16:31:46;;;;;;;3.27;1.43;;;;;;;10.82;65.07;99456.69;10057963;29;20326;-83
2021/12/29 16:36:48;;;;;;;2.57;1.40;;;;;;;11.23;63.64;99471.81;10090474;29;20238;-84
2021/12/29 16:41:51;;;;;;;2.20;1.40;;;;;;;10.86;64.61;99452.03;10083204;29;20336;-82
2021/12/29 16:46:53;;;;;;;1.60;1.30;;;;;;;10.65;65.95;99451.22;10061078;29;20268;-82
2021/12/29 16:51:55;;;;;;;2.73;1.23;;;;;;;10.85;65.58;99450.41;10059527;29;20889;-84
2021/12/29 16:56:58;;;;;;;1.40;0.93;;;;;;;10.94;66.08;99434.25;10054180;29;20943;-85
2021/12/29 17:02:01;;;;;;;2.90;0.80;;;;;;;10.36;68.22;99433.28;10073653;29;20248;-84
2021/12/29 17:07:04;;;;;;;1.80;1.60;;;;;;;10.36;68.58;99419.22;10086199;29;20297;-84
2021/12/29 17:12:08;;;;;;;1.70;1.20;;;;;;;10.37;68.02;99401.22;10083679;29;20236;-83
2021/12/29 17:17:10;;;;;;;2.07;1.13;;;;;;;10.71;67.96;99404.94;10065868;29;20602;-84
2021/12/29 17:22:13;;;;;;;1.33;0.80;;;;;;;11.13;66.54;99395.22;10060497;29;20611;-84
2021/12/29 17:27:15;;;;;;;1.67;0.70;;;;;;;11.42;65.48;99405.41;10069901;29;20308;-82
2021/12/29 17:32:18;;;;;;;1.07;0.63;;;;;;;10.21;69.56;99397.41;10073685;29;20285;-83
2021/12/29 17:37:21;;;;;;;1.03;0.70;;;;;;;10.50;69.76;99395.66;10068699;29;20969;-83
2021/12/29 17:42:23;;;;;;;0.90;0.53;;;;;;;10.75;69.84;99387.00;10077819;29;20307;-84
2021/12/29 17:47:26;;;;;;;1.80;0.57;;;;;;;10.80;68.72;99402.84;10083060;29;20257;-84
2021/12/29 17:52:28;;;;;;;0.97;0.77;;;;;;;10.69;69.59;99396.00;10063714;29;20242;-85
2021/12/29 17:57:30;;;;;;;0.73;0.40;;;;;;;11.49;67.11;99413.28;10076291;29;20248;-86
2021/12/29 18:02:33;;;;;;;0.60;0.50;;;;;;;11.28;68.68;99418.97;10082484;29;20678;-85
2021/12/29 18:07:35;;;;;;;1.20;0.60;;;;;;;11.30;68.54;99415.81;10068534;29;20265;-85
2021/12/29 18:12:38;;;;;;;0.40;0.40;;;;;;;11.73;66.42;99418.94;10090654;29;20670;-84
2021/12/29 18:17:41;;;;;;;0.30;0.30;;;;;;;12.06;67.94;99426.41;10088093;29;20238;-83
2021/12/29 18:22:44;;;;;;;0.50;0.50;;;;;;;11.51;68.98;99433.44;10074809;29;20252;-82
2021/12/29 18:27:46;;;;;;;0.93;0.83;;;;;;;11.62;67.79;99440.25;10089072;29;20694;-84
2021/12/29 18:32:51;;;;;;;0.60;0.43;;;;;;;11.91;68.00;99432.78;10096052;29;20262;-85
2021/12/29 18:37:53;;;;;;;0.40;0.30;;;;;;;11.61;69.18;99430.16;10101693;29;20240;-84
2021/12/29 18:42:56;;;;;;;0.50;0.50;;;;;;;11.98;67.81;99439.44;10083892;29;20246;-85
2021/12/29 18:48:00;;;;;;;1.67;0.50;;;;;;;11.98;68.89;99431.00;10055570;29;20265;-84
2021/12/29 18:53:04;;;;;;;2.10;0.70;;;;;;;11.51;69.20;99464.38;10095897;29;20244;-84
2021/12/29 18:58:07;;;;;;;1.50;1.10;;;;;;;11.54;70.54;99449.59;10086367;29;20237;-83
2021/12/29 19:03:10;;;;;;;1.80;1.10;;;;;;;12.02;68.93;99448.00;10074512;29;20250;-84
2021/12/29 19:08:12;;;;;;;0.90;0.90;;;;;;;12.10;69.34;99455.50;10084471;29;20245;-83
2021/12/29 19:13:14;;;;;;;1.90;1.30;;;;;;;12.04;70.44;99459.75;10085419;29;20260;-83
2021/12/29 19:18:17;;;;;;;1.37;1.27;;;;;;;11.98;71.02;99461.13;10060287;29;20241;-83
2021/12/29 19:23:19;;;;;;;1.70;1.60;;;;;;;12.24;70.58;99470.03;10098762;29;20318;-83
2021/12/29 19:28:23;;;;;;;2.40;2.20;;;;;;;12.11;71.43;99480.47;10077152;29;20655;-83
2021/12/29 19:33:25;;;;;;;2.90;2.60;;;;;;;12.25;71.27;99488.56;10062688;29;20757;-83
2021/12/29 19:38:28;;;;;;;4.60;3.80;;;;;;;12.33;71.05;99498.88;10094520;29;20233;-82
2021/12/29 19:43:30;;;;;;;3.93;3.30;;;;;;;12.38;69.99;99504.28;10065216;29;20270;-84
2021/12/29 19:48:33;;;;;;;4.60;4.20;;;;;;;12.33;71.35;99510.13;10047622;29;20378;-84
2021/12/29 19:53:36;;;;;;;3.70;3.40;;;;;;;12.67;70.01;99505.19;10070371;29;20290;-84
2021/12/29 19:58:42;;;;;;;4.97;4.47;;;;;;;12.62;70.55;99502.59;10043537;29;20237;-84
2021/12/29 20:03:45;;;;;;;5.37;4.67;;;;;;;12.17;72.62;99524.13;10068968;29;20317;-82
2021/12/29 20:08:47;;;;;;;6.67;5.97;;;;;;;12.62;69.80;99542.06;10040160;29;20614;-82
2021/12/29 20:13:50;;;;;;;9.93;7.80;;;;;;;13.33;68.92;99547.81;10067486;29;20310;-82
2021/12/29 20:18:53;;;;;;;11.17;9.30;;;;;;;13.78;66.30;99567.22;10077888;29;20278;-83
2021/12/29 20:23:55;;;;;;;11.27;9.23;;;;;;;13.00;69.46;99579.06;10072635;29;20285;-83
2021/12/29 20:28:57;;;;;;;12.43;11.13;;;;;;;13.32;69.09;99584.84;10072917;29;20262;-83
2021/12/29 20:34:03;;;;;;;13.83;10.37;;;;;;;13.93;66.82;99593.84;10056906;29;20293;-82
2021/12/29 20:39:07;;;;;;;15.83;13.37;;;;;;;13.58;67.71;99605.00;10045681;29;20254;-82
2021/12/29 20:44:09;;;;;;;19.20;14.57;;;;;;;13.48;69.44;99622.38;10050968;29;20564;-82
2021/12/29 20:49:12;;;;;;;22.17;16.50;;;;;;;13.13;72.45;99645.56;10040706;29;20238;-83
2021/12/29 20:54:14;;;;;;;24.57;17.37;;;;;;;13.70;68.85;99650.09;10076841;29;20577;-83
2021/12/29 20:59:17;;;;;;;28.43;18.83;;;;;;;13.78;67.94;99643.47;10029109;29;20245;-82
2021/12/29 21:04:20;;;;;;;29.03;20.70;;;;;;;13.44;70.51;99655.34;10062363;29;20249;-84
2021/12/29 21:09:24;;;;;;;26.83;19.03;;;;;;;13.71;68.85;99676.31;10047029;29;20285;-84
2021/12/29 21:14:26;;;;;;;23.63;18.97;;;;;;;14.10;66.36;99694.38;10068178;29;20270;-84
2021/12/29 21:19:29;;;;;;;27.13;20.30;;;;;;;13.91;67.75;99704.34;10054127;29;20271;-85
2021/12/29 21:24:31;;;;;;;26.83;20.23;;;;;;;14.20;67.95;99727.75;10072188;29;20249;-83
2021/12/29 21:29:33;;;;;;;25.80;18.20;;;;;;;14.16;66.48;99732.47;10095770;29;20236;-84
2021/12/29 21:34:35;;;;;;;25.67;19.27;;;;;;;14.30;65.93;99730.03;10103548;29;20234;-84
2021/12/29 21:39:38;;;;;;;29.73;20.97;;;;;;;13.67;68.66;99732.66;10116127;29;20213;-84
2021/12/29 21:44:41;;;;;;;28.00;20.57;;;;;;;14.41;66.24;99759.44;10098236;29;20221;-83
2021/12/29 21:49:44;;;;;;;29.40;20.00;;;;;;;13.80;68.95;99767.34;10099518;29;20210;-86
2021/12/29 21:54:46;;;;;;;30.90;20.03;;;;;;;14.13;68.44;99772.72;10116560;29;20253;-84
2021/12/29 21:59:49;;;;;;;24.60;17.60;;;;;;;13.94;68.39;99781.88;10072671;29;20278;-82
2021/12/29 22:04:51;;;;;;;31.57;18.90;;;;;;;14.24;66.95;99797.31;10087196;29;20257;-85
2021/12/29 22:09:53;;;;;;;26.73;17.40;;;;;;;14.07;67.24;99803.25;10090336;29;20265;-84
2021/12/29 22:14:55;;;;;;;28.07;18.07;;;;;;;14.63;64.94;99809.72;10066040;29;20229;-85
2021/12/29 22:19:58;;;;;;;28.43;16.37;;;;;;;14.43;65.66;99822.06;10059770;29;20255;-83
2021/12/29 22:25:04;;;;;;;22.23;14.97;;;;;;;14.68;64.56;99828.41;10067229;29;20234;-84
2021/12/29 22:30:11;;;;;;;26.83;15.57;;;;;;;14.22;66.81;99832.75;10089379;29;20235;-84
2021/12/29 22:35:14;;;;;;;26.93;15.80;;;;;;;14.61;63.48;99846.03;10070560;29;20262;-84
2021/12/29 22:40:19;;;;;;;27.17;17.20;;;;;;;14.05;66.73;99850.81;10094990;29;20210;-83
2021/12/29 22:45:25;;;;;;;26.83;16.23;;;;;;;14.34;64.87;99863.78;10085291;29;20217;-83
2021/12/29 22:50:35;;;;;;;25.40;16.03;;;;;;;14.14;65.94;99861.94;10070317;29;20281;-84
2021/12/29 22:55:37;;;;;;;27.10;13.90;;;;;;;14.05;65.38;99864.09;10083192;29;20242;-83
2021/12/29 23:00:39;;;;;;;29.43;14.30;;;;;;;13.97;64.58;99866.72;10102930;29;20209;-83
2021/12/29 23:05:42;;;;;;;23.57;13.73;;;;;;;14.25;64.70;99872.38;10094233;29;20641;-83
2021/12/29 23:10:46;;;;;;;30.57;13.90;;;;;;;14.65;62.32;99885.69;10084157;29;20217;-83
2021/12/29 23:15:49;;;;;;;20.80;11.30;;;;;;;14.07;64.00;99898.47;10095126;29;20368;-83
2021/12/29 23:20:52;;;;;;;28.07;10.80;;;;;;;14.16;64.21;99897.13;10074479;29;20265;-84
2021/12/29 23:26:07;;;;;;;24.93;12.57;;;;;;;14.36;63.70;99911.50;10072004;29;20241;-83